KBYH/BYH METAR and TAF weather

Enter ICAO airport designator
Station Type Date Time Source
KBYH METAR 2023/01/27 20:59 UTC NOAA

KBYH 272059Z 23019G30KT 10SM SKC 12/01 A3010


Station Type Date Time Source
KBYH Decoded METAR 2023/01/27 20:59 UTC NOAA

Eaker Air Force Base, AR, United States (KBYH) 35-58N 089-57W
Jan 27, 2023 - 03:59 PM EST / 2023.01.27 2059 UTC
Wind: from the SW (230 degrees) at 22 MPH (19 KT) gusting to 35 MPH (30 KT):0
Visibility: 10 mile(s):0
Sky conditions: clear
Temperature: 53 F (12 C)
Dew Point: 33 F (1 C)
Relative Humidity: 46%
Pressure (altimeter): 30.1 in. Hg (1019 hPa)
ob: KBYH 272059Z 23019G30KT 10SM SKC 12/01 A3010
cycle: 21

Station Type Date Time Source
KBYH TAF UTC NOAA

Error!

Example: see airport list